Flight Track Log - Related Links

Times and Time Zones

All times are in EDT time to prevent confusion due to time zone crossing. See the TAM3130 flight status page for this flight to view local times or setup timezone preferences in your user account.

Time Position Orientation Groundspeed Altitude Reporting Facility
EDT Latitude Longitude Course Direction KTS MPH feet Rate Location/Type
Mon 07:47:00 AM -23.1091 -45.6245 62° Northeast  Level Estimated
Mon 07:48:00 AM -23.0570 -45.5219 61° Northeast  Level Estimated
Mon 07:49:00 AM -23.0048 -45.4193 61° Northeast  Level Estimated
Mon 07:50:00 AM -22.9525 -45.3168 61° Northeast  Level Estimated
Mon 07:51:00 AM -22.9002 -45.2144 61° Northeast  Level Estimated
Mon 07:52:00 AM -22.8478 -45.1121 61° Northeast  Level Estimated
Mon 07:53:00 AM -22.7953 -45.0099 61° Northeast  Level Estimated
Mon 07:54:00 AM -22.7428 -44.9077 61° Northeast  Level Estimated
Mon 07:55:00 AM -22.6902 -44.8056 61° Northeast  Level Estimated
Mon 07:56:00 AM -22.6376 -44.7036 61° Northeast  Level Estimated
Mon 07:57:00 AM -22.5849 -44.6017 61° Northeast  Level Estimated
Mon 07:58:00 AM -22.5321 -44.4998 61° Northeast  Level Estimated
Mon 07:59:00 AM -22.4792 -44.3980 61° Northeast  Level Estimated
Mon 08:00:00 AM -22.4263 -44.2963 61° Northeast  Level Estimated
Mon 08:01:00 AM -22.3734 -44.1947 61° Northeast  Level Estimated
Mon 08:02:00 AM -22.3203 -44.0932 61° Northeast  Level Estimated
Mon 08:03:00 AM -22.2672 -43.9917 61° Northeast  Level Estimated
Mon 08:04:00 AM -22.2141 -43.8903 60° Northeast  Level Estimated
Mon 08:05:00 AM -22.1608 -43.7890 60° Northeast  Level Estimated
Mon 08:06:00 AM -22.1075 -43.6877 60° Northeast  Level Estimated
Mon 08:07:00 AM -22.0542 -43.5866 60° Northeast  Level Estimated
Mon 08:08:00 AM -22.0008 -43.4855 60° Northeast  Level Estimated
Mon 08:09:00 AM -21.9473 -43.3845 60° Northeast  Level Estimated
Mon 08:10:00 AM -21.8938 -43.2836 60° Northeast  Level Estimated
Mon 08:11:00 AM -21.8402 -43.1827 60° Northeast  Level Estimated
Mon 08:12:00 AM -21.7865 -43.0819 60° Northeast  Level Estimated
Mon 08:13:00 AM -21.7328 -42.9812 60° Northeast  Level Estimated
Mon 08:14:00 AM -21.6790 -42.8806 60° Northeast  Level Estimated
Mon 08:15:00 AM -21.6252 -42.7800 60° Northeast  Level Estimated
Mon 08:16:00 AM -21.5713 -42.6795 60° Northeast  Level Estimated
Mon 08:17:00 AM -21.5173 -42.5791 60° Northeast  Level Estimated
Mon 08:18:00 AM -21.4633 -42.4788 60° Northeast  Level Estimated
Mon 08:19:00 AM -21.4092 -42.3785 60° Northeast  Level Estimated
Mon 08:20:00 AM -21.3551 -42.2784 60° Northeast  Level Estimated
Mon 08:21:00 AM -21.3009 -42.1782 60° Northeast  Level Estimated
Mon 08:22:00 AM -21.2466 -42.0782 60° Northeast  Level Estimated
Mon 08:23:00 AM -21.1923 -41.9783 60° Northeast  Level Estimated
Mon 08:24:00 AM -21.1379 -41.8784 60° Northeast  Level Estimated
Mon 08:25:00 AM -21.0835 -41.7786 60° Northeast  Level Estimated
Mon 08:26:00 AM -21.0290 -41.6788 60° Northeast  Level Estimated
Mon 08:27:00 AM -20.9745 -41.5792 60° Northeast  Level Estimated
Mon 08:28:00 AM -20.9198 -41.4796 60° Northeast  Level Estimated
Mon 08:29:00 AM -20.8652 -41.3800 60° Northeast  Level Estimated
Mon 08:30:00 AM -20.8105 -41.2806 60° Northeast  Level Estimated
Mon 08:31:00 AM -20.7557 -41.1812 59° Northeast  Level Estimated
Mon 08:32:00 AM -20.7008 -41.0819 59° Northeast  Level Estimated
Mon 08:33:00 AM -20.6459 -40.9827 59° Northeast  Level Estimated
Mon 08:34:00 AM -20.5910 -40.8835 59° Northeast  Level Estimated
Mon 08:35:00 AM -20.5360 -40.7844 59° Northeast  Level Estimated
Mon 08:36:00 AM -20.4809 -40.6854 59° Northeast  Level Estimated
Mon 08:37:00 AM -20.4258 -40.5864 59° Northeast  Level Estimated
Mon 08:38:00 AM -20.3706 -40.4876 59° Northeast  Level Estimated
Mon 08:39:00 AM -20.3154 -40.3888 59° Northeast  Level Estimated
Mon 08:40:00 AM -20.2601 -40.2900 59° Northeast  Level Estimated
Mon 08:41:00 AM -20.2581 -40.2864 59° Northeast  Level Estimated
Mon 08:42:00 AM -20.2581 -40.2864 13° North  Level Estimated
Mon 08:43:00 AM -20.2581 -40.2864 13° North  Level Estimated
Mon 08:44:00 AM -20.2581 -40.2864 13° North  Level Estimated
Mon 08:45:00 AM -20.2581 -40.2864 13° North  Level Estimated
Mon 08:46:00 AM -20.2581 -40.2864 13° North  Level Estimated
Mon 08:47:00 AM -20.2581 -40.2864 13° North  Level Estimated
Mon 08:48:00 AM -20.2581 -40.2864 13° North  Level Estimated
Mon 08:49:00 AM -20.2581 -40.2864 13° North  Level Estimated
Mon 08:50:00 AM -20.2581 -40.2864 13° North  Level Estimated
Mon 08:51:00 AM -20.2581 -40.2864 13° North  Level Estimated
Mon 08:52:00 AM -20.2581 -40.2864 13° North  Level Estimated
Mon 08:53:00 AM -20.2581 -40.2864 13° North  Level Estimated
Mon 08:54:00 AM -20.2581 -40.2864 13° North  Level Estimated

Login

Don't have an account? Register now (free) for customized features, flight alerts, and more!